Date,TemperatureHighF,TemperatureAvgF,TemperatureLowF,DewpointHighF,DewpointAvgF,DewpointLowF,HumidityHigh,HumidityAvg,HumidityLow,PressureMaxIn,PressureMinIn,WindSpeedMaxMPH,WindSpeedAvgMPH,GustSpeedMaxMPH,PrecipitationSumIn
2013-9-1,81.2,80.1,78.9,58.3,55.2,53.2,46,42,41,29.03,28.91,6,0,8,0.00
2013-9-2,84.3,80.7,76.7,61.9,57.6,55.1,54,45,41,29.09,29.00,4,0,5,0.00
2013-9-3,82.3,77.3,74.7,61.6,57.7,51.9,63,51,40,29.18,29.09,5,1,5,0.00
2013-9-4,84.1,79.0,75.8,61.3,57.9,54.9,59,49,39,29.29,29.18,5,1,6,0.00
2013-9-5,84.1,78.8,73.3,61.8,58.8,56.0,63,51,40,29.32,29.21,8,2,8,0.00
2013-9-6,83.5,77.4,71.8,63.2,59.5,56.4,67,55,40,29.29,29.15,8,1,8,0.00
2013-9-7,86.4,78.1,73.3,66.7,60.0,51.5,70,55,40,29.18,29.18,6,1,6,0.00
2013-9-8,92.9,83.7,72.4,70.7,63.3,52.4,79,51,39,29.18,29.00,4,0,4,0.00
2013-9-9,95.8,84.5,75.3,72.8,67.3,61.2,84,59,38,29.15,29.03,6,1,6,0.00
2013-9-10,100.6,87.0,72.6,72.3,66.1,60.4,81,54,28,29.26,29.12,6,0,6,0.00
2013-9-11,101.0,87.5,76.0,71.2,66.4,62.9,69,52,32,29.26,29.18,8,1,8,0.00
2013-9-12,101.5,85.9,75.4,74.7,67.1,63.8,75,55,35,29.21,29.12,4,0,5,0.00
2013-9-13,87.9,79.3,72.2,64.5,52.8,46.1,60,41,32,29.23,29.12,4,0,5,0.00
2013-9-14,88.8,76.2,63.7,56.2,47.6,42.0,46,37,29,29.26,29.15,9,3,9,0.00
2013-9-15,89.5,77.5,63.4,56.5,51.1,44.2,54,40,31,29.21,29.15,9,3,9,0.00
2013-9-16,81.0,75.4,72.2,62.0,57.1,51.9,66,53,44,29.32,29.18,6,1,6,0.00
2013-9-17,89.7,78.0,69.1,64.3,60.2,57.9,68,56,39,29.29,29.15,8,2,8,0.00
2013-9-18,86.8,78.9,74.2,69.2,64.6,61.8,68,62,54,29.18,29.09,9,3,9,0.00
2013-9-19,95.6,81.8,75.6,70.8,66.5,63.5,69,61,41,29.15,29.03,8,3,9,0.00
2013-9-20,77.6,74.5,68.4,68.5,64.1,56.0,77,70,61,29.09,29.00,4,0,5,1.14
2013-9-21,89.7,75.8,61.6,60.5,51.9,44.0,68,46,27,29.12,29.03,6,0,6,0.00
2013-9-22,87.1,73.9,59.4,58.7,49.4,45.1,65,44,30,29.15,29.00,6,1,6,0.00
2013-9-23,85.0,73.4,60.7,57.0,50.3,45.8,60,45,36,29.09,28.97,10,3,10,0.00
2013-9-24,93.8,76.6,64.6,61.1,55.5,50.8,67,50,30,29.03,28.91,6,1,6,0.00
2013-9-25,87.5,74.3,63.9,60.6,57.1,52.5,75,57,40,29.00,28.94,4,0,4,0.00
2013-9-26,81.6,72.3,63.0,62.7,59.3,56.6,84,65,45,29.12,29.00,8,2,8,0.00
2013-9-27,81.9,74.3,67.2,64.9,61.3,59.3,81,65,48,29.18,29.09,11,4,11,0.00
2013-9-28,82.8,74.0,68.1,65.3,62.7,59.5,81,69,50,29.15,29.06,10,4,13,0.04
2013-9-29,73.8,70.2,65.2,65.9,61.2,57.6,83,73,62,29.18,29.09,6,1,8,0.04
2013-9-30,76.7,71.0,67.2,63.8,62.3,61.0,83,74,60,29.09,29.00,8,3,8,0.00